Time;durP1;ratioP1;P1;durP2;ratioP2;P2;SDS_P1;SDS_P2;PMS_P1;PMS_P2;Temp;Humidity;BMP_temperature;BMP_pressure;BME280_temperature;BME280_humidity;BME280_pressure;Samples;Min_cycle;Max_cycle;Signal;HPM_P1;HPM_P2
2021/03/27 00:01:01;;;;;;;12.73;9.43;;;;;;;8.82;49.19;102296.02;1649781;85;21382;-47
2021/03/27 00:03:46;;;;;;;17.75;11.03;;;;;;;8.80;49.78;102292.50;1668522;85;21593;-47
2021/03/27 00:06:56;;;;;;;15.60;10.70;;;;;;;8.84;50.35;102295.59;1805395;78;23570;-46
2021/03/27 00:09:49;;;;;;;15.08;10.75;;;;;;;8.71;51.19;102297.20;1722450;83;21595;-45
2021/03/27 00:12:38;;;;;;;12.73;9.40;;;;;;;8.68;52.09;102291.08;1713570;83;21691;-46
2021/03/27 00:15:38;;;;;;;13.93;9.80;;;;;;;8.77;52.60;102296.38;1689220;83;21289;-46
2021/03/27 00:18:28;;;;;;;11.78;8.70;;;;;;;8.87;52.95;102291.72;1702709;83;21208;-45
2021/03/27 00:21:08;;;;;;;12.33;8.93;;;;;;;8.86;53.38;102293.89;1619171;87;21399;-45
2021/03/27 00:23:56;;;;;;;12.65;8.78;;;;;;;8.92;53.49;102296.09;1771237;79;22674;-46
2021/03/27 00:26:29;;;;;;;13.38;8.73;;;;;;;8.90;53.36;102290.01;1740153;82;21144;-46
2021/03/27 00:29:09;;;;;;;14.87;9.85;;;;;;;8.95;53.20;102297.84;1740999;82;21116;-46
2021/03/27 00:31:46;;;;;;;14.03;9.03;;;;;;;8.98;53.25;102303.08;1740469;82;21156;-45
2021/03/27 00:34:22;;;;;;;11.88;8.78;;;;;;;9.06;53.50;102296.23;1810098;79;22969;-46
2021/03/27 00:36:55;;;;;;;13.00;8.58;;;;;;;9.07;53.65;102294.06;1776560;80;21297;-46
2021/03/27 00:39:31;;;;;;;12.03;9.40;;;;;;;9.13;53.85;102300.60;1762449;80;21623;-46
2021/03/27 00:42:13;;;;;;;10.60;8.33;;;;;;;9.17;53.97;102294.58;1769741;80;21171;-46
2021/03/27 00:45:00;;;;;;;13.53;9.15;;;;;;;9.18;54.35;102300.23;1779339;80;21156;-46
2021/03/27 00:47:32;;;;;;;17.50;9.85;;;;;;;9.19;54.90;102298.05;1780870;80;21286;-46
2021/03/27 00:50:40;;;;;;;12.90;9.30;;;;;;;9.19;55.08;102292.86;1777016;80;21591;-46
2021/03/27 00:53:17;;;;;;;14.05;9.10;;;;;;;9.22;55.32;102295.50;1775394;80;21140;-46
2021/03/27 00:56:02;;;;;;;10.78;8.35;;;;;;;9.25;55.73;102295.54;1712680;83;21314;-47
2021/03/27 00:59:08;;;;;;;14.87;9.93;;;;;;;9.30;55.82;102297.73;1804279;78;23528;-47
2021/03/27 01:01:42;;;;;;;12.35;8.80;;;;;;;9.26;55.76;102296.38;1669084;84;21530;-47
2021/03/27 01:04:25;;;;;;;12.58;9.23;;;;;;;9.28;55.75;102296.84;1810050;79;23030;-46
2021/03/27 01:07:02;;;;;;;14.78;9.93;;;;;;;9.21;55.61;102296.34;1648705;86;21253;-46
2021/03/27 01:09:47;;;;;;;12.40;9.10;;;;;;;9.23;55.55;102296.38;1771345;79;23108;-46
2021/03/27 01:12:37;;;;;;;14.65;8.98;;;;;;;9.17;55.58;102302.37;1730416;82;21319;-47
2021/03/27 01:15:16;;;;;;;12.98;9.78;;;;;;;9.19;55.59;102297.21;1632686;86;21201;-46
2021/03/27 01:17:49;;;;;;;13.95;9.70;;;;;;;9.20;55.48;102302.41;1647962;86;21228;-46
2021/03/27 01:20:29;;;;;;;13.80;10.78;;;;;;;9.21;55.51;102303.28;1637098;87;21394;-46
2021/03/27 01:23:03;;;;;;;13.65;10.65;;;;;;;9.22;55.67;102299.39;1810079;79;23431;-46
2021/03/27 01:25:35;;;;;;;13.88;9.90;;;;;;;9.15;55.82;102301.48;1776725;80;21540;-47
2021/03/27 01:28:23;;;;;;;13.65;10.82;;;;;;;9.14;55.93;102307.55;1776815;80;21327;-46
2021/03/27 01:31:09;;;;;;;14.58;9.98;;;;;;;9.14;55.96;102308.85;1773009;80;21158;-46
2021/03/27 01:34:01;;;;;;;12.65;10.10;;;;;;;9.15;55.94;102309.28;1712383;83;21321;-46
2021/03/27 01:37:15;;;;;;;16.52;11.65;;;;;;;9.17;55.65;102312.75;1810046;79;22958;-46
2021/03/27 01:39:52;;;;;;;13.50;10.40;;;;;;;9.11;55.49;102310.56;1777821;80;21140;-46
2021/03/27 01:42:38;;;;;;;14.45;11.43;;;;;;;9.06;55.23;102314.41;1766501;80;21148;-46
2021/03/27 01:45:41;;;;;;;16.07;11.33;;;;;;;9.03;55.24;102314.36;1766245;80;21116;-45
2021/03/27 01:48:31;;;;;;;18.25;11.93;;;;;;;9.02;55.15;102316.53;1716353;83;21168;-46
2021/03/27 01:51:05;;;;;;;16.27;12.07;;;;;;;9.02;55.12;102320.43;1719809;83;21187;-46
2021/03/27 01:54:02;;;;;;;17.20;12.35;;;;;;;9.02;55.20;102323.03;1719951;83;21152;-46
2021/03/27 01:57:03;;;;;;;17.05;12.47;;;;;;;9.01;55.15;102323.87;1717645;83;21537;-46
2021/03/27 01:59:37;;;;;;;;;;;;;;;8.99;55.20;102330.34;1717385;83;21148;-44
2021/03/27 02:02:13;;;;;;;19.30;13.38;;;;;;;8.97;55.23;102328.59;1720065;83;20164;-45
2021/03/27 02:05:13;;;;;;;19.98;12.88;;;;;;;9.02;55.31;102329.52;1821905;77;23025;-46
2021/03/27 02:08:20;;;;;;;17.40;13.78;;;;;;;9.01;55.11;102327.77;1719828;82;21171;-46
2021/03/27 02:11:13;;;;;;;17.80;12.23;;;;;;;8.99;54.97;102338.56;1718158;82;21148;-46
2021/03/27 02:14:09;;;;;;;21.65;14.95;;;;;;;8.97;54.97;102342.87;1719012;83;21178;-45
2021/03/27 02:16:46;;;;;;;19.20;14.00;;;;;;;8.91;54.88;102342.80;1717429;82;21160;-46
2021/03/27 02:20:04;;;;;;;19.60;13.62;;;;;;;8.90;54.87;102337.19;1766198;79;23047;-46
2021/03/27 02:23:13;;;;;;;18.90;13.50;;;;;;;8.85;55.11;102337.55;1743680;82;21171;-46
2021/03/27 02:26:02;;;;;;;18.57;14.05;;;;;;;8.84;55.32;102343.62;1735793;82;21321;-47
2021/03/27 02:28:42;;;;;;;19.95;14.03;;;;;;;8.84;55.29;102344.91;1738387;82;21585;-47
2021/03/27 02:31:37;;;;;;;22.07;14.68;;;;;;;8.88;55.04;102342.80;1736295;82;21177;-47
2021/03/27 02:34:44;;;;;;;20.88;14.03;;;;;;;8.88;55.00;102344.09;1672700;84;21177;-47
2021/03/27 02:37:30;;;;;;;22.25;15.55;;;;;;;8.86;54.84;102344.50;1669164;85;21164;-47
2021/03/27 02:40:06;;;;;;;17.80;14.33;;;;;;;8.81;54.73;102340.97;1665707;85;21254;-47
2021/03/27 02:43:06;;;;;;;20.17;14.75;;;;;;;8.78;54.72;102340.92;1810142;79;23020;-46
2021/03/27 02:45:50;;;;;;;19.07;14.58;;;;;;;8.70;55.13;102342.56;1723272;82;21653;-46
2021/03/27 02:48:55;;;;;;;24.12;16.37;;;;;;;8.74;55.55;102346.94;1810060;79;22983;-46
2021/03/27 02:51:27;;;;;;;24.18;15.03;;;;;;;8.67;55.69;102347.74;1776654;80;21302;-46
2021/03/27 02:54:18;;;;;;;23.18;14.95;;;;;;;8.64;55.89;102352.88;1740415;82;21161;-46
2021/03/27 02:56:58;;;;;;;22.98;16.20;;;;;;;8.62;56.16;102350.70;1727068;82;21148;-46
2021/03/27 03:00:07;;;;;;;23.20;16.57;;;;;;;8.61;56.16;102353.74;1728581;82;21347;-46
2021/03/27 03:03:08;;;;;;;21.57;14.05;;;;;;;8.63;56.08;102358.95;1742842;82;21231;-46
2021/03/27 03:05:59;;;;;;;23.90;18.32;;;;;;;8.30;56.97;102355.94;1751413;79;28254;-47
2021/03/27 03:08:59;;;;;;;21.40;16.05;;;;;;;8.14;57.50;102353.09;1735837;82;21117;-47
2021/03/27 03:11:33;;;;;;;25.12;16.80;;;;;;;8.15;57.66;102362.63;1740966;82;21141;-47
2021/03/27 03:14:19;;;;;;;23.52;16.35;;;;;;;8.11;57.76;102360.84;1740123;82;21145;-46
2021/03/27 03:17:20;;;;;;;24.05;16.45;;;;;;;8.14;57.89;102362.16;1740966;82;21164;-46
2021/03/27 03:19:58;;;;;;;23.20;15.53;;;;;;;8.14;58.00;102367.77;1734784;82;21572;-46
2021/03/27 03:23:12;;;;;;;22.48;16.10;;;;;;;8.27;57.43;102367.12;1741298;82;21314;-47
2021/03/27 03:25:52;;;;;;;23.90;16.75;;;;;;;8.58;56.23;102363.19;1745853;82;21600;-46
2021/03/27 03:28:46;;;;;;;20.02;15.20;;;;;;;8.58;55.71;102365.78;1760314;81;21168;-46
2021/03/27 03:31:25;;;;;;;27.00;16.12;;;;;;;8.58;55.61;102368.38;1812302;79;22129;-46
2021/03/27 03:34:05;;;;;;;22.52;16.50;;;;;;;8.50;55.86;102375.20;1738189;82;21166;-46
2021/03/27 03:36:48;;;;;;;25.40;16.57;;;;;;;8.47;55.86;102371.30;1738287;82;21173;-46
2021/03/27 03:39:48;;;;;;;26.55;16.90;;;;;;;8.54;55.73;102376.98;1773026;79;23650;-45
2021/03/27 03:42:59;;;;;;;25.23;18.20;;;;;;;8.48;55.75;102375.61;1740122;82;21153;-46
2021/03/27 03:45:41;;;;;;;25.10;16.97;;;;;;;8.48;55.57;102383.39;1610003;89;21186;-46
2021/03/27 03:48:35;;;;;;;25.40;17.45;;;;;;;8.47;55.87;102390.30;1617114;89;21279;-46
2021/03/27 03:51:18;;;;;;;26.87;17.73;;;;;;;8.47;56.01;102395.94;1617059;89;21194;-46
2021/03/27 03:54:31;;;;;;;27.20;18.87;;;;;;;8.47;56.26;102398.53;1617028;89;21746;-46
2021/03/27 03:57:11;;;;;;;26.42;18.32;;;;;;;8.50;56.17;102403.74;1613454;89;21224;-46
2021/03/27 03:59:52;;;;;;;28.83;18.70;;;;;;;8.48;55.89;102398.54;1616781;89;21206;-46
2021/03/27 04:02:30;;;;;;;28.90;18.77;;;;;;;8.47;55.62;102401.97;1613732;89;21248;-46
2021/03/27 04:05:18;;;;;;;24.50;18.35;;;;;;;8.47;55.77;102406.31;1613276;89;21308;-46
2021/03/27 04:07:57;;;;;;;29.35;20.00;;;;;;;8.46;55.73;102405.85;1614773;88;21411;-46
2021/03/27 04:10:27;;;;;;;30.30;18.80;;;;;;;8.37;55.96;102409.61;1616903;89;21618;-46
2021/03/27 04:13:30;;;;;;;27.62;20.08;;;;;;;8.36;56.24;102415.66;1617021;89;21215;-46
2021/03/27 04:16:06;;;;;;;28.57;19.62;;;;;;;8.58;55.55;102412.48;1616991;89;21214;-46
2021/03/27 04:18:58;;;;;;;26.82;19.00;;;;;;;8.52;55.62;102418.90;1616949;89;21239;-46
2021/03/27 04:21:37;;;;;;;29.07;20.75;;;;;;;8.31;56.28;102417.31;1616962;89;21254;-46
2021/03/27 04:24:13;;;;;;;27.77;18.42;;;;;;;8.38;56.00;102424.34;1616890;89;21182;-46
2021/03/27 04:27:35;;;;;;;28.35;20.02;;;;;;;8.32;56.04;102419.06;1794957;78;23110;-45
2021/03/27 04:30:33;;;;;;;27.30;19.80;;;;;;;8.36;55.71;102423.44;1767047;80;21183;-45
2021/03/27 04:33:12;;;;;;;28.05;20.08;;;;;;;8.32;56.23;102429.44;1762014;80;21183;-45
2021/03/27 04:35:53;;;;;;;25.60;19.27;;;;;;;8.39;56.14;102432.12;1721153;81;21158;-45
2021/03/27 04:38:47;;;;;;;32.58;19.95;;;;;;;8.40;56.24;102437.78;1660849;85;21218;-45
2021/03/27 04:41:44;;;;;;;29.25;20.75;;;;;;;8.41;56.24;102433.02;1802201;79;23116;-46
2021/03/27 04:44:40;;;;;;;32.80;21.57;;;;;;;8.38;56.41;102443.79;1786329;80;21734;-46
2021/03/27 04:47:25;;;;;;;30.37;20.08;;;;;;;8.53;56.20;102442.71;1718739;83;21273;-46
2021/03/27 04:50:00;;;;;;;27.95;19.62;;;;;;;8.56;56.32;102445.33;1714830;83;21576;-46
2021/03/27 04:52:45;;;;;;;30.45;21.30;;;;;;;8.61;56.13;102450.17;1716794;83;21183;-46
2021/03/27 04:55:43;;;;;;;31.25;21.42;;;;;;;8.69;55.81;102449.84;1771570;79;23105;-46
2021/03/27 04:58:23;;;;;;;;;;;;;;;8.64;55.58;102448.89;1748821;82;21790;-46
2021/03/27 05:01:19;;;;;;;32.20;20.65;;;;;;;8.60;55.71;102452.30;1735590;82;20179;-46
2021/03/27 05:04:17;;;;;;;30.17;21.25;;;;;;;8.59;55.88;102454.05;1734841;82;21152;-46
2021/03/27 05:07:18;;;;;;;29.92;19.57;;;;;;;8.64;56.27;102465.34;1747039;82;21140;-46
2021/03/27 05:10:15;;;;;;;32.15;21.40;;;;;;;8.67;56.52;102467.11;1651702;85;21653;-46
2021/03/27 05:13:13;;;;;;;27.37;20.05;;;;;;;8.71;56.34;102467.18;1771440;79;23388;-46
2021/03/27 05:16:07;;;;;;;34.23;20.82;;;;;;;8.68;56.56;102471.44;1740758;82;21192;-46
2021/03/27 05:18:55;;;;;;;29.52;19.82;;;;;;;8.70;56.49;102470.61;1740376;82;21113;-46
2021/03/27 05:21:44;;;;;;;37.28;21.65;;;;;;;8.69;56.73;102478.38;1708394;82;21632;-46
2021/03/27 05:24:54;;;;;;;29.75;20.17;;;;;;;8.74;56.75;102480.59;1660353;84;21195;-48
2021/03/27 05:27:39;;;;;;;36.58;22.25;;;;;;;8.78;56.65;102483.67;1654927;86;21190;-46
2021/03/27 05:30:21;;;;;;;37.38;23.30;;;;;;;8.82;56.44;102486.34;1656009;86;21221;-46
2021/03/27 05:33:27;;;;;;;31.27;21.25;;;;;;;8.85;56.47;102488.11;1658006;86;21678;-46
2021/03/27 05:36:20;;;;;;;29.67;20.68;;;;;;;8.89;56.51;102486.00;1656938;86;21407;-46
2021/03/27 05:38:59;;;;;;;31.80;22.20;;;;;;;8.96;56.19;102486.53;1653820;86;21230;-46
2021/03/27 05:41:59;;;;;;;35.10;22.35;;;;;;;9.03;56.12;102485.73;1768022;79;23100;-46
2021/03/27 05:44:49;;;;;;;33.28;21.55;;;;;;;9.00;55.98;102488.31;1658173;84;21353;-47
2021/03/27 05:48:04;;;;;;;34.30;22.05;;;;;;;9.05;56.20;102490.52;1810101;79;22997;-46
2021/03/27 05:51:00;;;;;;;29.25;21.80;;;;;;;9.04;56.28;102492.69;1772903;80;21116;-46
2021/03/27 05:53:52;;;;;;;34.63;22.10;;;;;;;9.08;55.89;102491.87;1775618;80;21129;-46
2021/03/27 05:56:29;;;;;;;28.45;20.90;;;;;;;9.07;56.16;102497.89;1772917;80;21136;-46
2021/03/27 05:59:36;;;;;;;34.05;22.85;;;;;;;9.10;56.04;102495.35;1726873;83;21385;-46
2021/03/27 06:02:10;;;;;;;32.42;21.90;;;;;;;9.25;55.92;102503.33;1728382;83;21557;-46
2021/03/27 06:05:17;;;;;;;32.88;22.45;;;;;;;9.39;55.85;102498.28;1728128;83;21829;-46
2021/03/27 06:08:27;;;;;;;34.08;23.90;;;;;;;9.55;55.56;102499.75;1727328;83;21172;-46
2021/03/27 06:11:23;;;;;;;36.53;23.70;;;;;;;9.75;54.92;102503.41;1727858;83;21152;-47
2021/03/27 06:14:01;;;;;;;28.42;21.70;;;;;;;9.97;54.81;102507.51;1721453;83;21148;-47
2021/03/27 06:17:26;;;;;;;29.85;21.87;;;;;;;10.31;54.19;102504.33;1771521;79;23206;-46
2021/03/27 06:20:15;;;;;;;33.73;23.73;;;;;;;10.43;53.80;102510.92;1733980;82;21128;-46
2021/03/27 06:22:53;;;;;;;35.20;23.45;;;;;;;10.63;53.42;102503.67;1736586;82;21148;-46
2021/03/27 06:26:09;;;;;;;34.38;22.90;;;;;;;10.84;53.41;102504.67;1738132;82;21149;-46
2021/03/27 06:29:21;;;;;;;32.63;23.45;;;;;;;11.07;52.80;102505.20;1734034;82;21148;-46
2021/03/27 06:32:43;;;;;;;34.55;24.12;;;;;;;11.33;52.20;102510.05;1659096;85;21266;-46
2021/03/27 06:35:35;;;;;;;37.63;23.90;;;;;;;11.44;51.52;102509.66;1660960;85;21601;-47
2021/03/27 06:38:20;;;;;;;33.63;23.23;;;;;;;11.53;51.42;102512.73;1638333;85;21276;-47
2021/03/27 06:41:06;;;;;;;35.70;24.15;;;;;;;11.65;50.80;102514.48;1654049;85;21403;-47
2021/03/27 06:43:47;;;;;;;29.70;22.20;;;;;;;11.64;50.37;102514.06;1656529;85;21184;-47
2021/03/27 06:46:23;;;;;;;36.53;24.63;;;;;;;11.45;50.78;102520.55;1640110;85;21149;-47
2021/03/27 06:49:37;;;;;;;33.42;24.75;;;;;;;11.34;51.10;102519.63;1758879;79;23084;-47
2021/03/27 06:52:41;;;;;;;33.63;24.30;;;;;;;11.16;51.59;102519.58;1732590;82;21152;-47
2021/03/27 06:55:33;;;;;;;41.37;24.27;;;;;;;11.09;52.21;102521.70;1687067;84;21285;-47
2021/03/27 06:58:12;;;;;;;35.40;24.80;;;;;;;11.08;52.32;102526.49;1700410;84;21178;-47
2021/03/27 07:01:17;;;;;;;36.80;25.60;;;;;;;11.02;52.51;102520.38;1795097;79;23401;-47
2021/03/27 07:04:19;;;;;;;38.95;26.52;;;;;;;10.91;52.82;102532.47;1755510;81;21136;-46
2021/03/27 07:07:03;;;;;;;38.73;24.67;;;;;;;10.86;53.12;102527.23;1763081;81;21164;-47
2021/03/27 07:10:25;;;;;;;40.85;26.33;;;;;;;10.86;53.39;102523.78;1769105;79;22521;-47
2021/03/27 07:13:32;;;;;;;36.93;25.52;;;;;;;10.79;53.68;102529.80;1690114;84;21145;-47
2021/03/27 07:16:40;;;;;;;38.20;25.48;;;;;;;10.85;54.03;102532.02;1800812;78;23381;-45
2021/03/27 07:19:43;;;;;;;34.88;24.72;;;;;;;10.90;54.19;102544.61;1786617;80;21576;-45
2021/03/27 07:22:33;;;;;;;37.93;25.68;;;;;;;11.02;53.73;102530.38;1769139;80;21178;-46
2021/03/27 07:25:43;;;;;;;43.85;25.52;;;;;;;11.09;53.38;102533.42;1766628;80;22656;-46
2021/03/27 07:28:38;;;;;;;41.10;25.08;;;;;;;11.13;53.27;102540.39;1714468;82;21625;-46
2021/03/27 07:31:26;;;;;;;39.80;27.77;;;;;;;11.26;52.95;102542.20;1767292;79;22725;-47
2021/03/27 07:34:31;;;;;;;37.83;25.05;;;;;;;11.26;53.05;102539.59;1732969;82;21132;-47
2021/03/27 07:37:23;;;;;;;37.00;25.57;;;;;;;11.36;53.44;102541.36;1738238;82;21302;-47
2021/03/27 07:40:33;;;;;;;38.65;25.27;;;;;;;11.45;53.19;102538.80;1732823;82;21188;-47
2021/03/27 07:43:28;;;;;;;39.83;27.17;;;;;;;11.48;53.15;102544.00;1737486;82;21135;-48
2021/03/27 07:46:31;;;;;;;37.58;25.05;;;;;;;11.44;52.39;102546.16;1743810;82;21164;-47
2021/03/27 07:49:08;;;;;;;;;;;;;;;11.52;52.54;102550.08;1733517;82;21221;-45
2021/03/27 07:52:13;;;;;;;42.15;26.77;;;;;;;11.48;52.48;102547.48;1732559;82;20200;-47
2021/03/27 07:55:26;;;;;;;38.60;25.48;;;;;;;11.43;52.57;102547.04;1725468;82;21156;-47
2021/03/27 07:58:41;;;;;;;35.63;25.25;;;;;;;11.47;53.14;102549.22;1731335;82;21172;-47
2021/03/27 08:01:41;;;;;;;40.30;27.75;;;;;;;11.56;52.93;102545.77;1733376;82;21274;-47
2021/03/27 08:04:35;;;;;;;43.20;27.55;;;;;;;11.46;53.26;102543.13;1636290;86;21647;-47
2021/03/27 08:07:19;;;;;;;39.55;27.02;;;;;;;11.48;53.29;102544.87;1764585;79;23866;-46
2021/03/27 08:10:35;;;;;;;37.75;27.15;;;;;;;11.40;53.18;102548.31;1738159;82;21136;-46
2021/03/27 08:13:51;;;;;;;39.35;27.07;;;;;;;11.43;53.36;102548.77;1737932;82;21140;-46
2021/03/27 08:16:50;;;;;;;38.17;26.20;;;;;;;11.38;53.37;102555.27;1743783;82;21136;-46
2021/03/27 08:19:44;;;;;;;;;;;;;;;11.38;52.95;102546.56;1640168;87;21164;-46
2021/03/27 08:22:48;;;;;;;42.30;26.68;;;;;;;11.44;52.82;102551.38;1646250;86;20214;-46
2021/03/27 08:25:46;;;;;;;36.13;24.92;;;;;;;11.56;53.03;102541.40;1685490;84;21167;-46
2021/03/27 08:28:57;;;;;;;38.00;24.80;;;;;;;11.74;52.57;102548.44;1659228;85;21205;-46
2021/03/27 08:31:42;;;;;;;39.60;27.30;;;;;;;11.89;52.17;102547.17;1637579;86;21223;-46
2021/03/27 08:34:52;;;;;;;38.00;25.92;;;;;;;12.04;51.79;102541.95;1636801;86;21216;-46
2021/03/27 08:38:05;;;;;;;41.95;28.00;;;;;;;12.18;51.59;102540.20;1682353;84;21763;-46
2021/03/27 08:40:44;;;;;;;42.17;28.23;;;;;;;12.22;50.68;102545.86;1662258;85;21591;-46
2021/03/27 08:44:21;;;;;;;46.48;28.87;;;;;;;12.24;50.15;102544.16;1792269;79;23049;-46
2021/03/27 08:47:19;;;;;;;41.53;28.07;;;;;;;12.17;50.27;102550.23;1766285;80;21593;-46
2021/03/27 08:50:41;;;;;;;40.30;26.10;;;;;;;12.14;50.10;102548.48;1775340;80;21148;-46
2021/03/27 08:53:39;;;;;;;39.92;27.93;;;;;;;12.15;49.96;102548.05;1767831;80;21156;-46
2021/03/27 08:56:16;;;;;;;43.73;28.05;;;;;;;12.17;49.68;102543.70;1732081;81;21172;-46
2021/03/27 08:59:16;;;;;;;39.03;26.57;;;;;;;12.22;49.73;102548.47;1704554;82;21214;-46
2021/03/27 09:02:09;;;;;;;37.88;27.27;;;;;;;12.31;49.89;102547.17;1702196;82;21152;-46
2021/03/27 09:04:55;;;;;;;39.20;28.98;;;;;;;12.41;49.99;102538.89;1743002;81;21180;-46
2021/03/27 09:07:53;;;;;;;41.95;28.67;;;;;;;12.42;49.63;102544.14;1742474;81;21584;-46
2021/03/27 09:10:55;;;;;;;42.10;28.73;;;;;;;12.46;49.72;102538.04;1822695;77;23673;-48
2021/03/27 09:13:55;;;;;;;45.58;29.85;;;;;;;12.47;49.56;102539.76;1810709;77;21120;-48
2021/03/27 09:16:33;;;;;;;44.63;30.12;;;;;;;12.52;49.79;102545.86;1818911;77;21286;-49
2021/03/27 09:19:19;;;;;;;39.70;28.20;;;;;;;12.58;49.26;102543.23;1818910;77;21524;-48
2021/03/27 09:22:16;;;;;;;40.33;28.98;;;;;;;12.60;48.75;102538.87;1814389;77;21147;-46
2021/03/27 09:25:22;;;;;;;42.25;29.60;;;;;;;12.63;48.54;102538.86;1811518;77;21164;-48
2021/03/27 09:28:04;;;;;;;36.73;26.25;;;;;;;12.62;48.62;102537.56;1818657;77;21287;-47
2021/03/27 09:31:00;;;;;;;42.83;29.52;;;;;;;12.58;48.56;102532.80;1841133;77;21736;-48
2021/03/27 09:33:42;;;;;;;41.65;28.20;;;;;;;12.60;48.41;102536.27;1752738;80;21314;-47
2021/03/27 09:36:17;;;;;;;45.52;28.87;;;;;;;12.63;48.63;102534.94;1725067;80;21150;-48
2021/03/27 09:39:19;;;;;;;38.67;27.22;;;;;;;12.69;49.16;102528.43;1745967;81;21147;-48
2021/03/27 09:42:03;;;;;;;36.28;25.70;;;;;;;12.82;49.47;102532.73;1770842;80;21172;-48
2021/03/27 09:44:53;;;;;;;40.17;28.27;;;;;;;13.00;49.47;102527.90;1756188;80;21210;-48
2021/03/27 09:47:52;;;;;;;36.10;24.75;;;;;;;13.16;49.18;102527.42;1751622;80;21321;-48
2021/03/27 09:50:41;;;;;;;41.40;26.62;;;;;;;13.24;49.15;102523.02;1760125;80;21108;-48
2021/03/27 09:53:26;;;;;;;36.42;24.52;;;;;;;13.30;49.47;102522.99;1769181;80;21115;-48
2021/03/27 09:56:12;;;;;;;35.95;23.87;;;;;;;13.34;48.60;102519.48;1765743;80;21567;-48
2021/03/27 09:59:06;;;;;;;33.58;23.38;;;;;;;13.45;47.72;102523.80;1763754;80;21153;-48
2021/03/27 10:01:53;;;;;;;32.10;21.50;;;;;;;13.60;47.29;102521.08;1753103;80;21116;-48
2021/03/27 10:04:27;;;;;;;31.55;22.42;;;;;;;13.77;47.13;102518.34;1692646;83;21232;-47
2021/03/27 10:07:26;;;;;;;35.38;21.60;;;;;;;13.90;46.17;102518.70;1742763;81;21127;-48
2021/03/27 10:10:38;;;;;;;28.32;19.32;;;;;;;14.00;45.33;102516.44;1715468;82;21144;-48
2021/03/27 10:13:37;;;;;;;33.05;21.15;;;;;;;14.06;44.60;102518.13;1719185;82;21324;-47
2021/03/27 10:16:12;;;;;;;30.48;20.27;;;;;;;14.10;44.08;102520.71;1719847;82;21672;-47
2021/03/27 10:18:45;;;;;;;31.02;21.97;;;;;;;14.10;43.72;102523.33;1722998;82;21172;-47
2021/03/27 10:21:35;;;;;;;31.60;22.58;;;;;;;14.08;43.95;102521.17;1697736;82;21186;-47
2021/03/27 10:24:14;;;;;;;34.92;21.12;;;;;;;14.09;44.15;102526.84;1721529;82;21211;-48
2021/03/27 10:27:04;;;;;;;29.75;21.10;;;;;;;14.13;43.55;102523.75;1720844;82;21197;-46
2021/03/27 10:29:44;;;;;;;28.87;21.25;;;;;;;14.15;43.91;102519.38;1698724;83;21171;-46
2021/03/27 10:32:36;;;;;;;35.80;21.80;;;;;;;14.17;43.63;102517.17;1768962;80;21180;-46
2021/03/27 10:35:25;;;;;;;32.90;22.02;;;;;;;14.25;43.73;102519.28;1767165;80;21294;-46
2021/03/27 10:38:23;;;;;;;29.65;21.15;;;;;;;14.30;43.28;102517.50;1762045;80;21108;-49
2021/03/27 10:41:02;;;;;;;31.55;22.87;;;;;;;14.35;42.74;102516.16;1767238;79;21292;-46
2021/03/27 10:43:51;;;;;;;33.85;26.77;;;;;;;14.47;42.73;102519.53;1798575;79;28338;-47
2021/03/27 10:46:27;;;;;;;28.05;21.45;;;;;;;14.50;42.48;102519.52;1790293;80;21136;-47
2021/03/27 10:49:28;;;;;;;33.50;24.30;;;;;;;14.66;42.10;102516.28;1771848;80;21521;-47
2021/03/27 10:52:31;;;;;;;31.37;24.00;;;;;;;14.74;42.01;102512.27;1675108;85;21154;-47
2021/03/27 10:55:26;;;;;;;28.95;22.05;;;;;;;14.74;41.34;102520.12;1675608;85;21178;-48
2021/03/27 10:58:02;;;;;;;30.27;21.82;;;;;;;14.79;40.17;102517.02;1665191;85;21249;-47
2021/03/27 11:01:18;;;;;;;31.40;23.05;;;;;;;14.81;39.38;102512.63;1670277;85;21226;-47
2021/03/27 11:04:32;;;;;;;35.38;24.77;;;;;;;14.90;39.55;102519.09;1663735;85;21194;-48
2021/03/27 11:07:37;;;;;;;34.18;24.70;;;;;;;15.05;43.23;102521.51;1672586;85;21162;-47
2021/03/27 11:10:48;;;;;;;35.92;25.17;;;;;;;15.20;45.40;102521.33;1769234;79;22501;-48
2021/03/27 11:13:45;;;;;;;31.85;24.57;;;;;;;15.15;46.26;102524.44;1738747;82;21144;-47
2021/03/27 11:16:55;;;;;;;35.00;27.00;;;;;;;15.00;46.99;102521.56;1734121;82;21254;-48
2021/03/27 11:19:41;;;;;;;35.08;24.25;;;;;;;14.85;46.95;102524.38;1726913;81;21187;-48
2021/03/27 11:22:18;;;;;;;37.93;25.68;;;;;;;14.65;47.49;102528.52;1710227;82;21274;-48
2021/03/27 11:25:09;;;;;;;40.30;28.57;;;;;;;14.54;48.04;102531.70;1714027;82;21600;-48
2021/03/27 11:28:00;;;;;;;34.38;25.23;;;;;;;14.53;48.35;102527.33;1769157;79;23116;-47
2021/03/27 11:30:40;;;;;;;31.70;22.98;;;;;;;14.47;48.60;102533.94;1697095;84;21624;-47
2021/03/27 11:33:48;;;;;;;28.47;21.97;;;;;;;14.51;48.51;102527.78;1690125;84;21136;-48
2021/03/27 11:36:23;;;;;;;32.42;22.25;;;;;;;14.53;48.43;102526.02;1687079;84;21199;-47
2021/03/27 11:39:05;;;;;;;38.33;24.45;;;;;;;14.51;48.50;102523.86;1695475;84;21111;-47
2021/03/27 11:41:42;;;;;;;30.68;22.82;;;;;;;14.58;48.64;102517.69;1663589;85;21219;-48
2021/03/27 11:44:19;;;;;;;37.00;23.90;;;;;;;14.65;48.34;102520.65;1683949;84;21622;-47
2021/03/27 11:47:04;;;;;;;33.30;24.23;;;;;;;14.78;47.89;102516.58;1802032;79;23069;-47
2021/03/27 11:49:43;;;;;;;33.02;23.12;;;;;;;14.71;47.69;102517.55;1791353;80;21152;-47
2021/03/27 11:52:52;;;;;;;30.95;22.55;;;;;;;14.75;47.38;102512.70;1784181;80;21589;-47
2021/03/27 11:55:36;;;;;;;32.35;23.42;;;;;;;14.80;47.59;102518.74;1740233;81;21611;-47
2021/03/27 12:01:34;;;;;;;32.33;22.73;;;;;;;14.74;47.97;102520.12;1731513;81;21253;-47
2021/03/27 12:04:22;;;;;;;30.02;22.32;;;;;;;14.79;48.10;102511.78;1734156;81;21573;-47
2021/03/27 12:07:13;;;;;;;30.82;21.87;;;;;;;14.76;48.34;102512.67;1736830;81;21159;-47
2021/03/27 12:10:06;;;;;;;31.35;21.20;;;;;;;14.71;48.47;102513.19;1806134;79;22210;-47
2021/03/27 12:12:59;;;;;;;27.48;20.97;;;;;;;14.57;48.72;102510.70;1771424;80;21167;-47
2021/03/27 12:15:52;;;;;;;31.95;21.90;;;;;;;14.61;49.07;102522.03;1769391;80;21125;-47
2021/03/27 12:18:29;;;;;;;27.85;21.70;;;;;;;14.75;48.73;102512.70;1778019;80;21120;-46
2021/03/27 12:21:23;;;;;;;27.42;20.45;;;;;;;14.77;48.87;102518.80;1757838;80;21532;-47
2021/03/27 12:24:16;;;;;;;30.10;22.13;;;;;;;14.78;48.62;102517.89;1774413;80;21136;-47
2021/03/27 12:27:12;;;;;;;31.82;21.65;;;;;;;14.98;48.14;102515.94;1772089;80;21155;-47
2021/03/27 12:29:45;;;;;;;32.70;22.15;;;;;;;15.03;47.80;102520.23;1769079;78;21159;-47
2021/03/27 12:32:44;;;;;;;29.75;21.80;;;;;;;15.14;47.29;102513.11;1722576;83;21245;-47
2021/03/27 12:35:27;;;;;;;29.25;20.60;;;;;;;15.23;46.79;102517.34;1804294;79;23088;-48
2021/03/27 12:38:21;;;;;;;31.42;22.75;;;;;;;15.17;46.59;102521.35;1689426;84;21164;-48
2021/03/27 12:41:00;;;;;;;36.30;22.65;;;;;;;15.13;46.81;102522.28;1689247;85;21172;-47
2021/03/27 12:43:31;;;;;;;32.23;22.58;;;;;;;15.02;47.11;102517.16;1688457;85;21295;-47
2021/03/27 12:46:11;;;;;;;30.10;21.27;;;;;;;14.93;47.57;102516.42;1687150;85;21301;-47
2021/03/27 12:49:12;;;;;;;33.95;23.55;;;;;;;14.89;47.75;102510.36;1689696;85;21353;-47
2021/03/27 12:51:50;;;;;;;28.98;22.05;;;;;;;14.91;47.85;102515.57;1685176;84;21163;-47
2021/03/27 12:54:46;;;;;;;35.78;24.02;;;;;;;14.97;47.62;102510.25;1685681;85;21666;-47
2021/03/27 12:57:40;;;;;;;35.10;22.48;;;;;;;14.89;47.89;102510.36;1690394;85;21188;-48
2021/03/27 13:00:45;;;;;;;32.25;22.27;;;;;;;14.87;47.91;102506.01;1686632;85;21537;-47
2021/03/27 13:03:50;;;;;;;25.75;21.27;;;;;;;14.82;48.00;102507.84;1687130;85;22583;-48
2021/03/27 13:06:39;;;;;;;35.68;22.45;;;;;;;14.76;48.02;102507.87;1623909;88;21160;-46
2021/03/27 13:09:20;;;;;;;30.30;21.60;;;;;;;14.68;48.23;102519.33;1644684;87;21200;-46